Time;durP1;ratioP1;P1;durP2;ratioP2;P2;SDS_P1;SDS_P2;PMS_P1;PMS_P2;Temp;Humidity;BMP_temperature;BMP_pressure;BME280_temperature;BME280_humidity;BME280_pressure;Samples;Min_cycle;Max_cycle;Signal;HPM_P1;HPM_P2
2022/03/29 00:02:00;;;;;;;12.93;11.63;;;8.70;87.20;;;;;;5033265;28;20637;-79
2022/03/29 00:04:27;;;;;;;16.30;12.13;;;8.50;88.50;;;;;;5040082;28;21223;-79
2022/03/29 00:06:54;;;;;;;12.33;11.03;;;8.90;89.80;;;;;;5045929;28;20650;-79
2022/03/29 00:09:23;;;;;;;14.50;12.03;;;8.90;89.60;;;;;;5044115;28;21029;-79
2022/03/29 00:11:50;;;;;;;14.00;12.27;;;9.10;90.00;;;;;;5042948;28;20630;-79
2022/03/29 00:14:17;;;;;;;15.20;11.70;;;8.70;90.50;;;;;;5039898;28;20739;-79
2022/03/29 00:16:43;;;;;;;12.70;11.40;;;8.90;91.00;;;;;;5040527;28;20637;-79
2022/03/29 00:19:11;;;;;;;12.47;11.23;;;8.70;91.30;;;;;;5043348;28;21687;-79
2022/03/29 00:21:38;;;;;;;14.43;13.00;;;8.50;91.10;;;;;;5040575;28;21470;-79
2022/03/29 00:24:06;;;;;;;15.17;12.50;;;8.80;91.50;;;;;;5042873;28;20637;-79
2022/03/29 00:26:34;;;;;;;13.13;11.93;;;8.70;91.40;;;;;;5039683;28;20651;-79
2022/03/29 00:29:01;;;;;;;12.63;11.30;;;8.70;91.40;;;;;;5041864;28;20635;-79
2022/03/29 00:31:29;;;;;;;12.80;11.20;;;8.30;91.20;;;;;;5043992;28;20888;-79
2022/03/29 00:33:56;;;;;;;12.27;11.27;;;8.70;92.30;;;;;;5042920;28;21168;-79
2022/03/29 00:36:22;;;;;;;13.80;12.50;;;8.20;92.20;;;;;;5039556;28;21033;-79
2022/03/29 00:38:50;;;;;;;12.73;11.63;;;8.70;92.70;;;;;;5042667;28;20622;-80
2022/03/29 00:41:17;;;;;;;13.03;11.40;;;8.30;91.90;;;;;;5043269;28;20664;-79
2022/03/29 00:43:45;;;;;;;13.97;12.57;;;8.70;92.20;;;;;;5041167;28;20768;-79
2022/03/29 00:46:12;;;;;;;14.33;13.03;;;8.60;92.70;;;;;;5042096;28;20652;-79
2022/03/29 00:48:39;;;;;;;13.13;11.80;;;8.40;93.10;;;;;;5040207;28;21471;-79
2022/03/29 00:51:06;;;;;;;13.10;11.80;;;8.00;93.10;;;;;;5042891;28;21167;-79
2022/03/29 00:53:33;;;;;;;13.13;11.83;;;8.20;92.80;;;;;;5044836;28;21180;-79
2022/03/29 00:56:02;;;;;;;13.40;12.03;;;8.40;92.90;;;;;;5042052;28;20671;-79
2022/03/29 00:58:35;;;;;;;12.47;11.47;;;8.50;93.60;;;;;;5043068;28;20634;-79
2022/03/29 01:01:06;;;;;;;12.80;11.70;;;8.30;93.60;;;;;;5040895;28;20761;-79
2022/03/29 01:03:33;;;;;;;13.07;11.67;;;8.50;94.10;;;;;;5042902;28;20673;-79
2022/03/29 01:06:00;;;;;;;12.90;11.70;;;8.20;94.10;;;;;;5043585;28;20648;-79
2022/03/29 01:08:27;;;;;;;13.47;12.30;;;8.10;94.20;;;;;;5042356;28;20660;-79
2022/03/29 01:10:55;;;;;;;13.17;12.00;;;8.00;93.70;;;;;;5043229;28;20665;-79
2022/03/29 01:13:22;;;;;;;13.60;12.07;;;7.90;94.80;;;;;;5035830;28;20730;-79
2022/03/29 01:15:49;;;;;;;13.50;12.03;;;8.30;95.20;;;;;;5042318;28;20693;-79
2022/03/29 01:18:20;;;;;;;12.90;11.60;;;8.40;95.50;;;;;;5042969;28;20669;-79
2022/03/29 01:20:49;;;;;;;15.10;12.40;;;8.30;95.70;;;;;;5043023;28;20660;-80
2022/03/29 01:23:20;;;;;;;13.63;12.00;;;7.80;95.90;;;;;;5042916;28;21734;-79
2022/03/29 01:25:51;;;;;;;13.43;12.13;;;8.20;95.50;;;;;;5045138;28;20644;-80
2022/03/29 01:28:27;;;;;;;12.00;10.83;;;7.90;94.50;;;;;;5047589;28;20649;-80
2022/03/29 01:30:54;;;;;;;15.10;11.57;;;8.30;94.50;;;;;;5041822;28;21009;-80
2022/03/29 01:33:21;;;;;;;13.07;11.80;;;8.00;94.80;;;;;;5046265;28;20643;-80
2022/03/29 01:35:49;;;;;;;14.70;13.00;;;8.40;94.60;;;;;;5045527;28;20678;-79
2022/03/29 01:38:17;;;;;;;13.43;12.10;;;8.10;94.90;;;;;;5045153;28;21185;-80
2022/03/29 01:40:44;;;;;;;15.40;13.60;;;8.00;95.60;;;;;;5045032;28;21094;-79
2022/03/29 01:43:12;;;;;;;12.33;11.23;;;8.30;96.20;;;;;;5046390;28;20634;-79
2022/03/29 01:45:39;;;;;;;12.30;11.10;;;7.90;95.90;;;;;;5045917;28;21129;-79
2022/03/29 01:48:06;;;;;;;12.10;11.00;;;8.10;96.10;;;;;;5046333;28;20695;-80
2022/03/29 01:50:34;;;;;;;13.07;11.83;;;8.20;95.70;;;;;;5043497;28;21267;-79
2022/03/29 01:53:01;;;;;;;13.00;11.80;;;8.10;95.90;;;;;;5046805;28;20636;-79
2022/03/29 01:55:29;;;;;;;13.43;12.13;;;7.90;95.40;;;;;;5044507;28;20698;-79
2022/03/29 01:57:56;;;;;;;18.77;12.63;;;8.30;95.40;;;;;;5043901;28;20637;-80
2022/03/29 02:00:32;;;;;;;13.07;11.70;;;8.10;95.00;;;;;;5041668;28;20653;-79
2022/03/29 02:02:59;;;;;;;12.60;11.40;;;8.30;95.40;;;;;;5046779;28;21312;-79
2022/03/29 02:05:26;;;;;;;12.97;11.80;;;8.00;96.10;;;;;;5042985;28;20633;-80
2022/03/29 02:07:53;;;;;;;12.23;10.93;;;8.30;95.70;;;;;;5044602;28;20636;-79
2022/03/29 02:10:21;;;;;;;14.37;12.77;;;8.10;96.20;;;;;;5046083;28;20664;-79
2022/03/29 02:12:52;;;;;;;15.20;13.00;;;8.10;96.50;;;;;;5041598;28;20690;-80
2022/03/29 02:15:21;;;;;;;15.00;13.17;;;7.70;96.50;;;;;;5043237;28;21300;-79
2022/03/29 02:17:50;;;;;;;16.80;13.23;;;8.20;97.20;;;;;;5043131;28;20630;-78
2022/03/29 02:20:22;;;;;;;13.63;12.23;;;8.00;96.80;;;;;;5044458;28;21241;-79
2022/03/29 02:22:49;;;;;;;13.20;12.00;;;7.60;96.50;;;;;;5043163;28;21026;-79
2022/03/29 02:25:16;;;;;;;14.07;12.80;;;8.00;97.10;;;;;;5044335;28;20633;-79
2022/03/29 02:27:45;;;;;;;14.83;13.33;;;8.10;97.50;;;;;;5043198;28;20711;-79
2022/03/29 02:30:17;;;;;;;14.23;12.80;;;8.00;97.20;;;;;;5045948;28;20696;-79
2022/03/29 02:32:44;;;;;;;13.57;12.33;;;8.20;97.00;;;;;;5044399;28;20645;-79
2022/03/29 02:35:12;;;;;;;12.80;11.40;;;8.10;97.90;;;;;;5041891;28;20690;-79
2022/03/29 02:37:39;;;;;;;13.90;12.60;;;7.70;97.20;;;;;;5039970;28;20656;-79
2022/03/29 02:40:09;;;;;;;13.60;12.30;;;8.00;97.30;;;;;;5042223;28;20665;-79
2022/03/29 02:42:40;;;;;;;13.80;12.40;;;8.20;98.00;;;;;;5040736;28;20704;-79
2022/03/29 02:45:09;;;;;;;13.43;12.13;;;8.10;98.40;;;;;;5041859;28;20634;-79
2022/03/29 02:47:39;;;;;;;13.37;12.00;;;8.00;98.80;;;;;;5039912;28;21021;-79
2022/03/29 02:50:07;;;;;;;13.93;12.63;;;7.50;98.80;;;;;;5045174;28;20655;-79
2022/03/29 02:52:33;;;;;;;14.63;12.47;;;8.00;99.10;;;;;;5043260;28;20698;-79
2022/03/29 02:55:00;;;;;;;14.27;12.60;;;7.80;99.20;;;;;;5044229;28;21361;-79
2022/03/29 02:57:28;;;;;;;12.77;11.57;;;7.90;99.40;;;;;;5044408;28;20638;-79
2022/03/29 02:59:55;;;;;;;15.13;12.20;;;7.30;99.60;;;;;;5044663;28;20825;-79
2022/03/29 03:02:22;;;;;;;13.07;11.67;;;7.90;99.90;;;;;;5042049;28;21001;-79
2022/03/29 03:04:50;;;;;;;13.50;12.20;;;7.70;99.90;;;;;;5044638;28;20641;-79
2022/03/29 03:07:17;;;;;;;13.90;12.40;;;7.70;99.90;;;;;;5044527;28;20638;-79
2022/03/29 03:09:43;;;;;;;12.77;11.73;;;7.60;99.90;;;;;;5043598;28;20757;-80
2022/03/29 03:12:10;;;;;;;14.13;12.00;;;7.50;99.90;;;;;;5045286;28;20638;-79
2022/03/29 03:14:37;;;;;;;12.63;11.50;;;7.70;99.90;;;;;;5044400;28;20650;-79
2022/03/29 03:17:04;;;;;;;13.67;12.20;;;7.60;99.40;;;;;;5044429;28;20656;-79
2022/03/29 03:19:31;;;;;;;17.60;12.63;;;7.60;98.90;;;;;;5043114;28;20665;-80
2022/03/29 03:22:01;;;;;;;15.07;13.57;;;7.80;98.60;;;;;;5044791;28;20668;-80
2022/03/29 03:24:27;;;;;;;14.20;12.77;;;7.80;98.70;;;;;;5043036;28;20637;-79
2022/03/29 03:26:54;;;;;;;15.93;13.40;;;7.80;98.90;;;;;;5039951;28;20630;-79
2022/03/29 03:29:21;;;;;;;14.80;13.40;;;7.70;98.90;;;;;;5040606;28;20655;-79
2022/03/29 03:31:49;;;;;;;14.60;13.30;;;7.50;99.80;;;;;;5041902;28;20653;-79
2022/03/29 03:34:16;;;;;;;14.57;13.13;;;7.50;99.90;;;;;;5044939;28;20639;-79
2022/03/29 03:36:43;;;;;;;15.33;13.70;;;7.60;99.90;;;;;;5044601;28;20791;-78
2022/03/29 03:39:11;;;;;;;14.47;12.87;;;7.70;99.90;;;;;;5043365;28;20641;-79
2022/03/29 03:41:39;;;;;;;13.70;12.43;;;7.50;99.80;;;;;;5044051;28;20646;-79
2022/03/29 03:44:06;;;;;;;15.13;13.50;;;7.80;99.90;;;;;;5042454;28;20648;-79
2022/03/29 03:46:33;;;;;;;14.23;12.57;;;7.60;99.90;;;;;;5040975;28;20622;-79
2022/03/29 03:49:00;;;;;;;13.40;12.00;;;7.30;99.90;;;;;;5043481;28;21117;-80
2022/03/29 03:51:29;;;;;;;12.90;11.77;;;7.10;99.30;;;;;;5035379;28;20713;-79
2022/03/29 03:53:55;;;;;;;14.13;12.77;;;7.50;99.90;;;;;;5044586;28;21327;-79
2022/03/29 03:56:24;;;;;;;12.70;11.57;;;7.50;99.90;;;;;;5046539;28;21033;-79
2022/03/29 03:58:51;;;;;;;15.13;11.53;;;7.10;99.90;;;;;;5038664;28;20657;-79
2022/03/29 04:01:17;;;;;;;13.93;12.43;;;7.40;99.90;;;;;;5038938;28;20661;-79
2022/03/29 04:03:46;;;;;;;14.23;12.90;;;7.20;99.90;;;;;;5040088;28;20643;-79
2022/03/29 04:06:14;;;;;;;14.03;12.63;;;7.50;99.90;;;;;;5040950;28;21170;-80
2022/03/29 04:08:41;;;;;;;12.57;11.37;;;7.20;99.90;;;;;;5041426;28;20986;-79
2022/03/29 04:11:07;;;;;;;13.00;11.80;;;6.90;99.90;;;;;;5044281;28;20964;-79
2022/03/29 04:13:38;;;;;;;13.53;12.13;;;7.50;99.90;;;;;;5042230;28;20637;-81
2022/03/29 04:16:05;;;;;;;13.60;12.30;;;7.40;99.90;;;;;;5043101;28;20766;-81
2022/03/29 04:18:32;;;;;;;13.53;12.23;;;7.60;99.90;;;;;;5041325;28;20649;-79
2022/03/29 04:21:00;;;;;;;14.30;12.93;;;7.60;99.90;;;;;;5043745;28;20665;-79
2022/03/29 04:23:27;;;;;;;14.00;12.30;;;7.10;99.90;;;;;;5044624;28;20751;-80
2022/03/29 04:25:54;;;;;;;14.27;12.83;;;7.20;99.90;;;;;;5042312;28;20629;-80
2022/03/29 04:28:21;;;;;;;12.30;11.17;;;7.40;99.90;;;;;;5038720;28;20635;-81
2022/03/29 04:30:49;;;;;;;12.13;11.17;;;7.10;99.90;;;;;;5044132;28;20653;-80
2022/03/29 04:33:17;;;;;;;16.43;12.37;;;7.50;99.90;;;;;;5040906;28;20641;-80
2022/03/29 04:35:44;;;;;;;12.20;11.10;;;7.10;99.90;;;;;;5043526;28;20677;-80
2022/03/29 04:38:10;;;;;;;13.10;11.60;;;7.40;99.90;;;;;;5043387;28;21151;-80
2022/03/29 04:40:37;;;;;;;13.83;12.47;;;7.20;99.90;;;;;;5043110;28;21265;-80
2022/03/29 04:43:04;;;;;;;13.37;11.97;;;7.40;99.90;;;;;;5039066;28;20634;-80
2022/03/29 04:45:31;;;;;;;15.53;11.43;;;6.90;99.90;;;;;;5043831;28;20634;-80
2022/03/29 04:48:00;;;;;;;13.70;12.50;;;7.30;99.90;;;;;;5043969;28;21298;-80
2022/03/29 04:50:29;;;;;;;12.67;11.30;;;7.20;99.90;;;;;;5041026;28;21016;-80
2022/03/29 04:52:56;;;;;;;12.83;11.73;;;7.20;99.90;;;;;;5042769;28;20707;-80
2022/03/29 04:55:25;;;;;;;12.43;11.37;;;7.20;99.90;;;;;;5044898;28;20677;-80
2022/03/29 04:57:52;;;;;;;23.00;14.17;;;7.00;99.90;;;;;;5038457;28;20635;-80
2022/03/29 05:00:25;;;;;;;17.50;14.33;;;7.20;99.90;;;;;;5033805;28;20666;-80
2022/03/29 05:02:57;;;;;;;14.83;13.23;;;7.10;99.90;;;;;;5047133;28;21211;-80
2022/03/29 05:05:37;;;;;;;22.87;12.47;;;7.10;99.90;;;;;;5046476;28;20625;-80
2022/03/29 05:08:04;;;;;;;13.00;11.70;;;6.80;99.90;;;;;;5043993;28;20729;-80
2022/03/29 05:10:33;;;;;;;14.43;13.13;;;7.20;99.90;;;;;;5046658;28;20684;-80
2022/03/29 05:13:02;;;;;;;18.70;13.53;;;7.10;99.90;;;;;;5048382;28;20649;-80
2022/03/29 05:15:29;;;;;;;14.57;13.10;;;6.60;99.90;;;;;;5036644;28;20666;-80
2022/03/29 05:17:56;;;;;;;14.47;12.83;;;6.80;99.90;;;;;;5045927;28;20728;-80
2022/03/29 05:20:26;;;;;;;12.90;11.70;;;6.60;99.90;;;;;;5047701;28;21101;-80
2022/03/29 05:22:56;;;;;;;16.87;13.27;;;7.20;99.90;;;;;;5047972;28;20629;-78
2022/03/29 05:25:25;;;;;;;14.00;12.80;;;7.00;99.90;;;;;;5046436;28;20626;-80
2022/03/29 05:27:53;;;;;;;14.83;13.30;;;7.10;99.90;;;;;;5046150;28;20665;-80
2022/03/29 05:30:21;;;;;;;15.07;13.43;;;7.00;99.90;;;;;;5046945;28;20672;-81
2022/03/29 05:32:51;;;;;;;13.43;12.20;;;7.00;99.90;;;;;;5044967;28;20632;-80
2022/03/29 05:35:18;;;;;;;15.60;12.20;;;6.90;99.90;;;;;;5045978;28;20958;-81
2022/03/29 05:37:47;;;;;;;14.20;12.70;;;7.00;99.90;;;;;;5042987;28;20729;-80
2022/03/29 05:40:14;;;;;;;15.40;12.33;;;7.10;99.90;;;;;;5044690;28;20665;-80
2022/03/29 05:42:42;;;;;;;14.67;13.23;;;7.00;99.90;;;;;;5046185;28;20654;-80
2022/03/29 05:45:10;;;;;;;16.50;12.70;;;7.00;99.90;;;;;;5044836;28;20638;-81
2022/03/29 05:50:21;;;;;;;18.50;13.77;;;7.30;99.90;;;;;;5046015;28;20663;-81
2022/03/29 05:52:49;;;;;;;22.20;14.30;;;7.40;99.90;;;;;;5046398;28;21035;-80
2022/03/29 05:55:16;;;;;;;14.20;12.87;;;7.30;99.90;;;;;;5046091;28;20637;-81
2022/03/29 05:57:44;;;;;;;14.30;13.00;;;6.80;99.90;;;;;;5041587;28;20680;-82
2022/03/29 06:00:12;;;;;;;14.93;13.70;;;7.30;99.90;;;;;;5045386;28;20662;-81
2022/03/29 06:02:40;;;;;;;14.60;13.20;;;7.40;99.90;;;;;;5045168;28;20634;-81
2022/03/29 06:05:09;;;;;;;14.67;13.20;;;7.50;99.90;;;;;;5046508;28;21006;-81
2022/03/29 06:07:36;;;;;;;17.20;13.87;;;7.40;99.90;;;;;;5041353;28;20630;-81
2022/03/29 06:10:05;;;;;;;13.90;12.63;;;7.60;99.90;;;;;;5045577;28;21103;-81
2022/03/29 06:12:33;;;;;;;15.63;14.10;;;7.60;99.90;;;;;;5037415;28;20747;-81
2022/03/29 06:15:02;;;;;;;15.80;13.60;;;7.90;99.90;;;;;;5042499;28;20635;-81
2022/03/29 06:17:29;;;;;;;14.23;12.83;;;8.00;99.90;;;;;;5044566;28;21015;-81
2022/03/29 06:19:57;;;;;;;13.90;12.80;;;8.00;99.90;;;;;;5044771;28;20667;-81
2022/03/29 06:22:24;;;;;;;15.07;13.67;;;8.30;99.90;;;;;;5044982;28;21106;-80
2022/03/29 06:24:51;;;;;;;16.60;15.00;;;8.10;99.90;;;;;;5037596;28;21167;-81
2022/03/29 06:27:21;;;;;;;16.13;14.53;;;8.40;99.90;;;;;;5044934;28;20642;-81
2022/03/29 06:29:48;;;;;;;13.70;12.40;;;8.40;99.90;;;;;;5045263;28;20666;-81
2022/03/29 06:32:15;;;;;;;16.73;14.90;;;8.50;99.10;;;;;;5044965;28;20737;-80
2022/03/29 06:34:57;;;;;;;15.03;13.60;;;8.50;99.10;;;;;;5044815;28;20716;-81
2022/03/29 06:37:23;;;;;;;15.67;13.50;;;8.30;98.10;;;;;;5042667;28;20673;-80
2022/03/29 06:39:50;;;;;;;16.30;14.80;;;8.70;97.70;;;;;;5046355;28;20679;-81
2022/03/29 06:42:18;;;;;;;16.73;14.53;;;8.40;98.60;;;;;;5043160;28;20643;-81
2022/03/29 06:44:46;;;;;;;18.27;16.03;;;8.50;98.90;;;;;;5043084;28;21304;-79
2022/03/29 06:47:13;;;;;;;17.50;14.60;;;8.60;98.10;;;;;;5044756;28;20724;-81
2022/03/29 06:49:40;;;;;;;19.30;15.97;;;9.00;98.10;;;;;;5043756;28;21117;-81
2022/03/29 06:52:08;;;;;;;19.43;15.83;;;8.60;97.20;;;;;;5044446;28;20657;-81
2022/03/29 06:54:35;;;;;;;16.13;14.43;;;9.00;97.20;;;;;;5044235;28;20724;-81
2022/03/29 06:57:03;;;;;;;15.63;14.03;;;9.10;97.30;;;;;;5041008;28;20667;-81
2022/03/29 06:59:29;;;;;;;17.20;14.70;;;9.20;96.90;;;;;;5041758;28;20634;-81
2022/03/29 07:01:57;;;;;;;16.90;15.20;;;9.20;97.00;;;;;;5043723;28;20641;-81
2022/03/29 07:04:24;;;;;;;16.23;14.53;;;9.40;96.50;;;;;;5043838;28;20641;-81
2022/03/29 07:06:51;;;;;;;16.23;14.47;;;9.40;95.90;;;;;;5045816;28;20637;-81
2022/03/29 07:12:02;;;;;;;16.30;14.60;;;9.10;95.20;;;;;;5043854;28;20621;-79
2022/03/29 07:14:29;;;;;;;17.27;15.43;;;9.70;95.20;;;;;;5043217;28;20626;-81
2022/03/29 07:16:57;;;;;;;15.67;14.07;;;9.50;94.90;;;;;;5045894;28;20678;-81
2022/03/29 07:19:27;;;;;;;18.53;15.23;;;9.80;95.20;;;;;;5045397;28;20653;-81
2022/03/29 07:21:54;;;;;;;16.37;14.67;;;9.70;95.30;;;;;;5044170;28;20626;-81
2022/03/29 07:24:21;;;;;;;15.67;13.37;;;9.80;95.00;;;;;;5043629;28;21059;-81
2022/03/29 07:26:49;;;;;;;16.63;14.93;;;9.90;95.10;;;;;;5044558;28;20637;-81
2022/03/29 07:29:16;;;;;;;16.10;14.30;;;9.40;94.70;;;;;;5043449;28;20638;-83
2022/03/29 07:31:45;;;;;;;16.43;14.60;;;9.90;95.10;;;;;;5032399;28;21007;-80
2022/03/29 07:34:14;;;;;;;21.10;15.67;;;9.80;94.70;;;;;;5031213;28;21237;-81
2022/03/29 07:36:41;;;;;;;16.63;15.20;;;9.70;94.40;;;;;;5038432;28;20681;-81
2022/03/29 07:39:09;;;;;;;16.70;15.10;;;10.10;93.90;;;;;;5030404;28;20694;-80
2022/03/29 07:41:37;;;;;;;17.97;16.20;;;9.90;94.00;;;;;;5039979;28;21159;-79
2022/03/29 07:44:05;;;;;;;17.27;15.33;;;9.80;94.00;;;;;;5033719;28;20647;-81
2022/03/29 07:46:31;;;;;;;21.07;15.60;;;10.30;93.90;;;;;;5042835;28;20676;-79
2022/03/29 07:48:58;;;;;;;21.50;15.90;;;10.50;93.70;;;;;;5043296;28;20638;-81
2022/03/29 07:51:26;;;;;;;17.47;15.80;;;10.50;93.60;;;;;;5043321;28;20658;-80
2022/03/29 07:53:53;;;;;;;32.40;28.50;;;10.50;93.40;;;;;;5044654;28;20630;-80
2022/03/29 07:56:22;;;;;;;19.87;16.60;;;10.80;93.50;;;;;;5043609;28;20680;-80
2022/03/29 07:58:56;;;;;;;17.50;15.67;;;10.80;93.20;;;;;;5036304;28;20637;-80
2022/03/29 08:01:23;;;;;;;24.50;16.77;;;11.00;93.00;;;;;;5041624;28;20722;-80
2022/03/29 08:03:50;;;;;;;20.57;15.00;;;10.70;92.50;;;;;;5040975;28;20637;-81
2022/03/29 08:06:17;;;;;;;17.57;15.10;;;11.20;92.60;;;;;;5037856;28;20731;-80
2022/03/29 08:08:45;;;;;;;22.33;14.73;;;11.20;92.50;;;;;;5039796;28;20993;-81
2022/03/29 08:11:13;;;;;;;22.10;14.87;;;11.30;92.30;;;;;;5041539;28;20665;-81
2022/03/29 08:13:40;;;;;;;17.43;15.43;;;11.40;91.80;;;;;;5040759;28;20634;-80
2022/03/29 08:16:07;;;;;;;17.60;15.90;;;11.50;91.50;;;;;;5042101;28;20642;-80
2022/03/29 08:18:35;;;;;;;20.00;15.07;;;11.60;90.80;;;;;;5037130;28;20642;-79
2022/03/29 08:21:03;;;;;;;18.00;16.20;;;11.50;91.10;;;;;;5040296;28;20662;-79
2022/03/29 08:23:36;;;;;;;17.40;14.77;;;11.60;91.00;;;;;;5043173;28;20732;-80
2022/03/29 08:26:07;;;;;;;17.83;15.37;;;11.70;90.90;;;;;;5043044;28;20638;-81
2022/03/29 08:28:34;;;;;;;16.57;14.80;;;11.80;90.30;;;;;;5042688;28;20642;-81
2022/03/29 08:31:00;;;;;;;17.60;15.30;;;11.90;90.20;;;;;;5033927;28;20739;-80
2022/03/29 08:33:27;;;;;;;19.23;15.20;;;12.00;90.10;;;;;;5042657;28;20634;-81
2022/03/29 08:35:54;;;;;;;18.63;15.77;;;12.20;89.60;;;;;;5039351;28;20645;-80
2022/03/29 08:38:21;;;;;;;19.83;16.30;;;12.20;88.90;;;;;;5040811;28;20681;-80
2022/03/29 08:40:50;;;;;;;18.23;15.17;;;12.30;88.90;;;;;;5041790;28;21257;-80
2022/03/29 08:43:19;;;;;;;15.67;13.90;;;12.50;87.80;;;;;;5043544;28;20692;-80
2022/03/29 08:45:49;;;;;;;16.70;14.53;;;12.60;86.60;;;;;;5037627;28;20650;-80
2022/03/29 08:48:16;;;;;;;17.73;14.70;;;12.80;85.70;;;;;;5040494;28;20622;-80
2022/03/29 08:50:45;;;;;;;20.90;13.30;;;13.10;84.30;;;;;;5037494;28;20665;-80
2022/03/29 08:53:13;;;;;;;15.17;13.50;;;13.30;83.90;;;;;;5038659;28;21263;-81
2022/03/29 08:55:42;;;;;;;18.40;13.37;;;13.40;84.40;;;;;;5035913;28;21501;-81
2022/03/29 08:58:09;;;;;;;17.77;14.10;;;13.50;82.80;;;;;;5016888;28;20788;-81
2022/03/29 09:00:39;;;;;;;21.80;14.27;;;13.50;83.00;;;;;;5040578;28;20701;-80
2022/03/29 09:03:07;;;;;;;15.57;13.87;;;13.50;81.50;;;;;;5036561;28;20640;-80
2022/03/29 09:05:34;;;;;;;14.73;12.70;;;13.70;81.80;;;;;;5035802;28;21010;-81
2022/03/29 09:08:05;;;;;;;18.33;13.57;;;13.90;81.30;;;;;;5040271;28;21262;-81
2022/03/29 09:10:41;;;;;;;15.00;12.97;;;14.00;81.10;;;;;;5041251;28;20653;-81
2022/03/29 09:13:18;;;;;;;17.40;13.93;;;14.20;80.60;;;;;;5041195;28;20636;-81
2022/03/29 09:15:48;;;;;;;17.30;14.60;;;14.30;78.40;;;;;;5033817;28;20650;-80
2022/03/29 09:18:16;;;;;;;15.30;13.93;;;14.50;76.80;;;;;;5044425;28;20777;-81
2022/03/29 09:20:45;;;;;;;15.20;13.70;;;14.50;76.90;;;;;;5042138;28;20672;-80
2022/03/29 09:23:14;;;;;;;16.67;15.13;;;14.50;76.30;;;;;;5039096;28;20964;-81
2022/03/29 09:25:46;;;;;;;17.73;14.13;;;14.60;76.00;;;;;;5033515;28;20645;-80
2022/03/29 09:28:37;;;;;;;15.33;13.73;;;14.80;76.10;;;;;;5030936;28;20762;-81
2022/03/29 09:31:22;;;;;;;19.40;14.20;;;15.00;76.30;;;;;;5036415;28;20666;-81
2022/03/29 09:33:51;;;;;;;14.87;13.03;;;15.10;76.30;;;;;;5038563;28;20634;-81
2022/03/29 09:36:20;;;;;;;16.00;14.47;;;15.20;75.90;;;;;;5041124;28;21144;-81
2022/03/29 09:38:51;;;;;;;15.60;14.00;;;15.20;75.60;;;;;;5039578;28;20767;-81
2022/03/29 09:41:26;;;;;;;16.23;14.37;;;15.40;75.00;;;;;;5032613;28;20709;-80
2022/03/29 09:44:24;;;;;;;;;;;;;;;;;;;;;
2022/03/29 09:46:59;;;;;;;18.63;15.30;;;15.70;74.00;;;;;;5036994;28;21519;-80
2022/03/29 09:49:26;;;;;;;16.73;14.53;;;15.70;73.20;;;;;;5043376;28;20633;-80
2022/03/29 09:52:09;;;;;;;16.23;14.43;;;15.80;73.50;;;;;;5043295;28;20733;-80
2022/03/29 09:54:37;;;;;;;19.53;15.00;;;15.90;72.80;;;;;;5040435;28;21165;-80
2022/03/29 09:57:05;;;;;;;23.20;15.27;;;16.10;72.20;;;;;;5042035;28;20670;-80
2022/03/29 09:59:33;;;;;;;16.30;13.90;;;16.20;71.40;;;;;;5038439;28;21432;-80
2022/03/29 10:02:04;;;;;;;17.63;14.37;;;16.40;70.50;;;;;;5045815;28;20634;-80
2022/03/29 10:04:35;;;;;;;17.17;14.47;;;16.50;70.90;;;;;;5045290;28;20732;-81
2022/03/29 10:07:06;;;;;;;14.67;13.10;;;16.70;70.00;;;;;;5039849;28;20650;-80
2022/03/29 10:09:38;;;;;;;16.47;13.13;;;16.80;69.30;;;;;;5040479;28;20715;-80
2022/03/29 10:12:06;;;;;;;17.93;14.30;;;16.90;68.20;;;;;;5045843;28;20633;-80
2022/03/29 10:14:36;;;;;;;22.43;15.07;;;17.20;68.30;;;;;;5044416;28;20642;-81
2022/03/29 10:17:06;;;;;;;17.07;15.27;;;17.30;67.80;;;;;;5044352;28;20685;-81
2022/03/29 10:19:36;;;;;;;16.90;15.10;;;17.50;66.70;;;;;;5050225;28;20759;-81
2022/03/29 10:22:04;;;;;;;16.80;14.67;;;17.60;66.00;;;;;;5046025;28;20657;-81
2022/03/29 10:24:34;;;;;;;16.33;13.60;;;17.90;67.20;;;;;;5044572;28;20640;-81
2022/03/29 10:27:01;;;;;;;15.13;13.53;;;18.10;65.30;;;;;;5044590;28;20641;-82
2022/03/29 10:29:29;;;;;;;17.40;14.50;;;18.30;64.80;;;;;;5045042;28;20653;-81
2022/03/29 10:32:00;;;;;;;18.30;14.53;;;18.60;65.20;;;;;;5047190;28;20626;-81
2022/03/29 10:34:31;;;;;;;15.00;13.40;;;18.80;64.30;;;;;;5037827;28;20633;-81
2022/03/29 10:37:10;;;;;;;15.87;14.10;;;19.00;63.90;;;;;;5052535;28;20644;-82
2022/03/29 10:39:55;;;;;;;17.10;13.60;;;19.00;63.40;;;;;;5045982;28;20656;-82
2022/03/29 10:42:44;;;;;;;17.17;13.30;;;18.90;62.20;;;;;;5049411;28;20633;-82
2022/03/29 10:45:19;;;;;;;22.03;13.77;;;18.80;61.60;;;;;;5044431;28;20674;-82
2022/03/29 10:48:40;;;;;;;;;;;;;;;;;;;;;
2022/03/29 10:51:45;;;;;;;19.80;14.60;;;18.90;61.40;;;;;;4962871;28;20662;-81
2022/03/29 11:01:23;;;;;;;;;;;;;;;;;;;;;
2022/03/29 11:07:18;;;;;;;15.90;12.97;;;19.90;58.10;;;;;;4951211;28;20626;-82
2022/03/29 11:10:01;;;;;;;;;;;;;;;;;;;;;
2022/03/29 11:50:35;;;;;;;19.07;14.40;;;21.10;54.10;;;;;;4951059;28;20648;-83
2022/03/29 11:53:02;;;;;;;17.33;15.53;;;21.20;53.90;;;;;;5012957;28;20676;-82
2022/03/29 11:55:43;;;;;;;17.77;15.50;;;21.40;53.80;;;;;;5044742;28;21000;-83
2022/03/29 11:58:24;;;;;;;16.77;14.33;;;21.70;54.20;;;;;;5048125;28;20653;-83
2022/03/29 12:00:51;;;;;;;16.43;14.83;;;21.80;54.00;;;;;;5046821;28;20652;-83
2022/03/29 12:03:31;;;;;;;17.10;14.80;;;22.00;53.80;;;;;;5048075;28;21230;-83
2022/03/29 12:06:12;;;;;;;21.33;17.70;;;22.10;53.10;;;;;;5050584;28;20681;-83
2022/03/29 12:08:51;;;;;;;17.77;15.83;;;22.20;51.90;;;;;;5042828;28;20622;-82
2022/03/29 12:11:19;;;;;;;19.20;15.13;;;22.20;51.60;;;;;;5048476;28;20650;-82
2022/03/29 12:13:47;;;;;;;16.50;14.33;;;22.10;51.70;;;;;;5047653;28;20637;-82
2022/03/29 12:16:20;;;;;;;17.47;15.70;;;21.90;51.70;;;;;;5047659;28;20737;-82
2022/03/29 12:18:47;;;;;;;18.70;15.03;;;22.00;51.50;;;;;;5047176;28;21218;-81
2022/03/29 12:21:18;;;;;;;18.47;15.60;;;22.10;51.10;;;;;;5043956;28;21226;-82
2022/03/29 12:23:47;;;;;;;20.13;15.63;;;22.30;51.10;;;;;;5049352;28;20728;-83
2022/03/29 12:26:19;;;;;;;16.07;14.67;;;22.40;50.90;;;;;;5038543;28;20654;-82
2022/03/29 12:28:46;;;;;;;18.87;14.63;;;22.60;51.00;;;;;;5044964;28;20645;-83
2022/03/29 12:31:16;;;;;;;18.20;14.67;;;22.60;50.40;;;;;;5044272;28;20653;-82
2022/03/29 12:33:45;;;;;;;15.67;14.20;;;22.60;49.80;;;;;;5049728;28;20625;-82
2022/03/29 12:36:16;;;;;;;16.23;14.57;;;22.60;49.80;;;;;;5046574;28;20614;-83
2022/03/29 12:38:45;;;;;;;15.97;14.17;;;22.60;49.50;;;;;;5043535;28;20653;-82
2022/03/29 12:41:13;;;;;;;15.53;14.03;;;22.60;49.50;;;;;;5045480;28;20711;-84
2022/03/29 12:43:40;;;;;;;17.10;14.70;;;22.60;49.10;;;;;;5044931;28;20657;-82
2022/03/29 12:46:10;;;;;;;17.73;15.97;;;22.40;49.50;;;;;;5048957;28;20630;-82
2022/03/29 12:48:48;;;;;;;15.63;14.10;;;22.50;48.80;;;;;;5048507;28;20629;-82
2022/03/29 12:51:16;;;;;;;14.83;13.20;;;22.80;49.40;;;;;;5045933;28;21287;-82
2022/03/29 13:07:08;;;;;;;;;;;;;;;;;;;;;
2022/03/29 13:10:20;;;;;;;;;;;;;;;;;;;;;
2022/03/29 13:16:25;;;;;;;17.30;10.43;;;22.80;46.90;;;;;;4960961;28;20625;-81
2022/03/29 13:18:52;;;;;;;20.87;11.30;;;22.70;45.60;;;;;;4985107;28;20663;-83
2022/03/29 13:21:24;;;;;;;17.23;11.23;;;22.80;45.40;;;;;;5037585;28;21012;-83
2022/03/29 13:24:04;;;;;;;16.93;11.80;;;22.80;44.70;;;;;;5044483;28;21214;-83
2022/03/29 13:26:34;;;;;;;15.83;12.20;;;22.70;44.80;;;;;;5046860;28;20657;-83
2022/03/29 13:32:57;;;;;;;;;;;;;;;;;;;;;
2022/03/29 13:45:51;;;;;;;14.70;12.17;;;22.70;45.40;;;;;;4973737;28;20630;-83
2022/03/29 13:51:31;;;;;;;17.67;12.17;;;22.80;45.90;;;;;;4914338;28;20690;-82
2022/03/29 13:54:01;;;;;;;15.43;12.43;;;22.80;45.80;;;;;;4957472;28;21013;-82
2022/03/29 13:56:42;;;;;;;17.97;11.77;;;22.60;44.90;;;;;;5033147;28;20670;-82
2022/03/29 13:59:13;;;;;;;12.80;10.90;;;22.60;45.10;;;;;;5039612;28;20664;-84
2022/03/29 14:15:48;;;;;;;;;;;;;;;;;;;;;
2022/03/29 14:22:13;;;;;;;14.97;11.10;;;22.60;40.60;;;;;;4971518;28;20656;-82
2022/03/29 14:41:02;;;;;;;22.33;14.03;;;22.20;47.00;;;;;;5045170;28;20712;-83
2022/03/29 14:47:11;;;;;;;;;;;;;;;;;;;;;
2022/03/29 14:49:43;;;;;;;15.33;12.10;;;22.40;43.60;;;;;;5042693;28;20656;-81
2022/03/29 14:52:15;;;;;;;17.70;12.00;;;22.40;43.90;;;;;;5048629;28;20645;-82
2022/03/29 14:54:42;;;;;;;22.43;13.10;;;22.30;43.50;;;;;;5049895;28;20661;-82
2022/03/29 14:57:09;;;;;;;19.93;13.87;;;22.00;43.40;;;;;;5046205;28;20647;-81
2022/03/29 14:59:39;;;;;;;13.37;11.57;;;22.00;44.00;;;;;;5045550;28;20870;-83
2022/03/29 15:02:06;;;;;;;22.00;12.43;;;22.10;44.20;;;;;;5047356;28;21110;-82